createdAt,value
2022-11-06T03:58:56.454Z,47.26
2022-11-06T03:59:56.476Z,47.26
2022-11-06T04:00:56.648Z,47.16
2022-11-06T04:01:58.077Z,47.16
2022-11-06T04:02:57.089Z,47.06
2022-11-06T04:03:57.115Z,47.04
2022-11-06T04:04:57.135Z,47.04
2022-11-06T04:05:57.280Z,46.94
2022-11-06T04:06:59.024Z,46.84
2022-11-06T04:07:59.283Z,46.84
2022-11-06T04:08:58.688Z,46.73
2022-11-06T04:10:00.635Z,46.64
2022-11-06T04:10:59.384Z,46.54
2022-11-06T04:11:58.131Z,46.54
2022-11-06T04:12:59.280Z,46.51
2022-11-06T04:13:59.394Z,46.41
2022-11-06T04:14:59.622Z,46.41
2022-11-06T04:15:59.645Z,46.41
2022-11-06T04:17:00.383Z,46.31
2022-11-06T04:17:59.938Z,46.31
2022-11-06T04:19:00.011Z,46.31
2022-11-06T04:20:00.165Z,46.22
2022-11-06T04:21:00.456Z,46.22
2022-11-06T04:22:01.265Z,46.22
2022-11-06T04:22:59.519Z,46.22
2022-11-06T04:24:02.282Z,46.11
2022-11-06T04:25:01.578Z,46.11
2022-11-06T04:26:01.291Z,46.11
2022-11-06T04:27:02.022Z,46.01
2022-11-06T04:28:00.180Z,46.01
2022-11-06T04:29:00.296Z,46.01
2022-11-06T04:30:02.514Z,46.01
2022-11-06T04:31:00.533Z,46.01
2022-11-06T04:32:03.270Z,46.01
2022-11-06T04:33:00.901Z,46.01
2022-11-06T04:34:00.950Z,46.01
2022-11-06T04:35:01.105Z,45.91
2022-11-06T04:36:01.302Z,45.91
2022-11-06T04:37:03.032Z,45.91
2022-11-06T04:38:02.471Z,45.91
2022-11-06T04:39:02.653Z,45.91
2022-11-06T04:40:02.773Z,45.91
2022-11-06T04:41:04.065Z,45.91
2022-11-06T04:42:03.883Z,45.91
2022-11-06T04:43:03.167Z,45.91
2022-11-06T04:44:03.446Z,45.91
2022-11-06T04:45:03.411Z,45.91
2022-11-06T04:46:03.579Z,45.91
2022-11-06T04:47:04.392Z,45.91
2022-11-06T04:48:03.819Z,45.91
2022-11-06T04:49:03.980Z,45.91
2022-11-06T04:50:04.141Z,45.91
2022-11-06T04:51:04.362Z,45.91
2022-11-06T04:52:04.562Z,45.81
2022-11-06T04:53:04.553Z,45.81
2022-11-06T04:54:04.803Z,45.81
2022-11-06T04:55:04.842Z,45.81
2022-11-06T04:56:04.997Z,45.81
2022-11-06T04:57:05.319Z,45.81
2022-11-06T04:58:05.346Z,45.81
2022-11-06T04:59:06.565Z,45.79
2022-11-06T05:00:05.488Z,45.81
2022-11-06T05:01:05.719Z,45.81
2022-11-06T05:02:07.004Z,45.81
2022-11-06T05:03:05.929Z,45.81
2022-11-06T05:04:06.203Z,45.81
2022-11-06T05:05:06.244Z,45.81
2022-11-06T05:06:06.317Z,45.81
2022-11-06T05:07:06.466Z,45.81
2022-11-06T05:08:06.646Z,45.81
2022-11-06T05:09:06.988Z,45.81
2022-11-06T05:10:07.093Z,45.69
2022-11-06T05:11:07.255Z,45.81
2022-11-06T05:12:07.133Z,45.71
2022-11-06T05:13:07.913Z,45.69
2022-11-06T05:14:07.446Z,45.71
2022-11-06T05:15:07.699Z,45.71
2022-11-06T05:16:07.996Z,45.71
2022-11-06T05:17:07.836Z,45.71
2022-11-06T05:18:08.111Z,45.71
2022-11-06T05:19:08.343Z,45.71
2022-11-06T05:20:08.316Z,45.71
2022-11-06T05:21:08.345Z,45.69
2022-11-06T05:22:08.509Z,45.71
2022-11-06T05:23:08.765Z,45.71
2022-11-06T05:24:09.066Z,45.71
2022-11-06T05:25:07.986Z,45.71
2022-11-06T05:26:09.214Z,45.71
2022-11-06T05:27:08.226Z,45.61
2022-11-06T05:28:08.366Z,45.61
2022-11-06T05:29:09.623Z,45.61
2022-11-06T05:30:08.673Z,45.61
2022-11-06T05:31:08.816Z,45.61
2022-11-06T05:32:10.604Z,45.61
2022-11-06T05:33:10.004Z,45.61
2022-11-06T05:34:09.146Z,45.61
2022-11-06T05:35:10.380Z,45.61
2022-11-06T05:36:09.422Z,45.71
2022-11-06T05:37:11.163Z,45.61
2022-11-06T05:38:09.704Z,45.61
2022-11-06T05:39:10.934Z,45.61
2022-11-06T05:40:09.927Z,45.61
2022-11-06T05:41:10.024Z,45.61
2022-11-06T05:42:10.199Z,45.61
2022-11-06T05:43:11.251Z,45.61
2022-11-06T05:44:11.589Z,45.51
2022-11-06T05:45:10.644Z,45.51
2022-11-06T05:46:35.744Z,45.51
2022-11-06T05:47:11.903Z,45.51
2022-11-06T05:48:14.482Z,45.51
2022-11-06T05:49:12.142Z,45.41
2022-11-06T05:50:11.270Z,45.51
2022-11-06T05:51:11.502Z,45.41
2022-11-06T05:52:13.271Z,45.51
2022-11-06T05:53:13.059Z,45.51
2022-11-06T05:54:12.915Z,45.41
2022-11-06T05:55:15.084Z,45.41
2022-11-06T05:56:13.131Z,45.41
2022-11-06T05:57:14.980Z,45.41
2022-11-06T05:58:13.812Z,45.41
2022-11-06T05:59:14.719Z,45.41
2022-11-06T06:00:14.529Z,45.41
2022-11-06T06:01:13.871Z,45.51
2022-11-06T06:02:13.138Z,45.41
2022-11-06T06:03:13.238Z,45.41
2022-11-06T06:04:13.321Z,45.51
2022-11-06T06:05:14.488Z,45.41
2022-11-06T06:06:14.198Z,45.51
2022-11-06T06:07:13.751Z,45.51
2022-11-06T06:08:14.208Z,45.51
2022-11-06T06:09:14.021Z,45.51
2022-11-06T06:10:17.295Z,45.51
2022-11-06T06:11:15.198Z,45.51
2022-11-06T06:12:14.400Z,45.51
2022-11-06T06:13:17.180Z,45.51
2022-11-06T06:14:15.915Z,45.51
2022-11-06T06:15:14.748Z,45.51
2022-11-06T06:16:15.943Z,45.51
2022-11-06T06:17:16.028Z,45.51
2022-11-06T06:18:16.432Z,45.51
2022-11-06T06:19:16.420Z,45.49
2022-11-06T06:20:16.425Z,45.51
2022-11-06T06:21:17.137Z,45.51
2022-11-06T06:22:16.696Z,45.51
2022-11-06T06:23:16.883Z,45.49
2022-11-06T06:24:17.039Z,45.51
2022-11-06T06:25:22.990Z,45.51
2022-11-06T06:26:18.311Z,45.51
2022-11-06T06:27:17.438Z,45.49
2022-11-06T06:28:17.524Z,45.51
2022-11-06T06:29:17.774Z,45.51
2022-11-06T06:30:19.070Z,45.51
2022-11-06T06:31:17.003Z,45.61
2022-11-06T06:32:17.137Z,45.61
2022-11-06T06:33:17.280Z,45.61
2022-11-06T06:34:18.494Z,45.61
2022-11-06T06:35:18.656Z,45.61
2022-11-06T06:36:17.672Z,45.61
2022-11-06T06:37:20.183Z,45.49
2022-11-06T06:38:18.005Z,45.59
2022-11-06T06:39:18.091Z,45.59
2022-11-06T06:40:19.859Z,45.59
2022-11-06T06:41:21.043Z,45.59
2022-11-06T06:42:18.551Z,45.59
2022-11-06T06:43:20.286Z,45.59
2022-11-06T06:44:18.783Z,45.49
2022-11-06T06:45:18.934Z,45.49
2022-11-06T06:46:20.172Z,45.49
2022-11-06T06:47:19.184Z,45.51
2022-11-06T06:48:20.356Z,45.51
2022-11-06T06:49:20.450Z,45.49
2022-11-06T06:50:20.622Z,45.49
2022-11-06T06:51:23.890Z,45.49
2022-11-06T06:52:20.920Z,45.49
2022-11-06T06:53:21.150Z,45.49
2022-11-06T06:54:21.112Z,45.59
2022-11-06T06:55:21.278Z,45.59
2022-11-06T06:56:23.165Z,45.59
2022-11-06T06:57:21.516Z,45.59
2022-11-06T06:58:22.055Z,45.59
2022-11-06T06:59:22.036Z,45.59
2022-11-06T07:00:21.875Z,45.59
2022-11-06T07:01:22.798Z,45.59
2022-11-06T07:02:21.292Z,45.59
2022-11-06T07:03:21.323Z,45.59
2022-11-06T07:04:22.514Z,45.49
2022-11-06T07:05:21.573Z,45.49
2022-11-06T07:06:23.590Z,45.49
2022-11-06T07:07:21.861Z,45.49
2022-11-06T07:08:23.082Z,45.59
2022-11-06T07:09:23.349Z,45.59
2022-11-06T07:10:23.295Z,45.59
2022-11-06T07:11:22.290Z,45.59
2022-11-06T07:12:24.104Z,45.59
2022-11-06T07:13:23.808Z,45.49
2022-11-06T07:14:23.572Z,45.49
2022-11-06T07:15:22.843Z,45.49
2022-11-06T07:16:23.930Z,45.49
2022-11-06T07:17:24.111Z,45.39
2022-11-06T07:18:24.442Z,45.49
2022-11-06T07:19:24.363Z,45.49
2022-11-06T07:20:24.528Z,45.49
2022-11-06T07:21:24.707Z,45.59
2022-11-06T07:22:32.155Z,45.49
2022-11-06T07:23:25.900Z,45.49
2022-11-06T07:24:24.988Z,45.49
2022-11-06T07:25:25.741Z,45.49
2022-11-06T07:26:26.526Z,45.49
2022-11-06T07:27:25.428Z,45.49
2022-11-06T07:28:26.183Z,45.49
2022-11-06T07:29:25.667Z,45.49
2022-11-06T07:30:26.451Z,45.49
2022-11-06T07:31:25.941Z,45.49
2022-11-06T07:32:26.769Z,45.49
2022-11-06T07:33:26.559Z,45.59
2022-11-06T07:34:26.347Z,45.49
2022-11-06T07:35:27.169Z,45.49
2022-11-06T07:36:27.972Z,45.49
2022-11-06T07:37:26.689Z,45.49
2022-11-06T07:38:27.434Z,45.49
2022-11-06T07:39:26.953Z,45.39
2022-11-06T07:40:27.217Z,45.39
2022-11-06T07:41:27.211Z,45.39
2022-11-06T07:42:27.965Z,45.39
2022-11-06T07:43:26.591Z,45.39
2022-11-06T07:44:27.818Z,45.49
2022-11-06T07:45:26.740Z,45.39
2022-11-06T07:46:27.812Z,45.49
2022-11-06T07:47:28.106Z,45.49
2022-11-06T07:48:27.178Z,45.49
2022-11-06T07:49:28.903Z,45.49
2022-11-06T07:50:28.459Z,45.49
2022-11-06T07:51:29.171Z,45.49
2022-11-06T07:52:28.907Z,45.49
2022-11-06T07:53:29.665Z,45.39
2022-11-06T07:54:29.009Z,45.49
2022-11-06T07:55:29.786Z,45.49
2022-11-06T07:56:29.285Z,45.39
2022-11-06T07:57:30.088Z,45.39
2022-11-06T07:58:29.547Z,45.39
2022-11-06T07:59:30.333Z,45.49
2022-11-06T08:00:29.859Z,45.49
2022-11-06T08:01:30.751Z,45.49
2022-11-06T08:02:30.942Z,45.39
2022-11-06T08:03:31.297Z,45.39
2022-11-06T08:04:30.365Z,45.39
2022-11-06T08:05:31.124Z,45.39
2022-11-06T08:06:30.618Z,45.39
2022-11-06T08:07:31.384Z,45.39
2022-11-06T08:08:31.632Z,45.37
2022-11-06T08:09:30.990Z,45.47
2022-11-06T08:10:31.269Z,45.49
2022-11-06T08:11:32.053Z,45.47
2022-11-06T08:12:32.863Z,45.47
2022-11-06T08:13:31.573Z,45.47
2022-11-06T08:14:33.721Z,45.47
2022-11-06T08:15:32.583Z,45.47
2022-11-06T08:16:32.004Z,45.47
2022-11-06T08:17:32.261Z,45.47
2022-11-06T08:18:33.026Z,45.47
2022-11-06T08:19:32.402Z,45.47
2022-11-06T08:20:33.125Z,45.47
2022-11-06T08:21:33.413Z,45.47
2022-11-06T08:22:33.679Z,45.47
2022-11-06T08:23:33.439Z,45.47
2022-11-06T08:24:32.981Z,45.47
2022-11-06T08:25:33.741Z,45.47
2022-11-06T08:26:34.027Z,45.47
2022-11-06T08:27:34.284Z,45.47
2022-11-06T08:28:35.529Z,45.37
2022-11-06T08:29:38.264Z,45.37
2022-11-06T08:30:35.385Z,45.37
2022-11-06T08:31:33.859Z,45.37
2022-11-06T08:32:34.621Z,45.37
2022-11-06T08:33:34.975Z,45.37
2022-11-06T08:34:36.306Z,45.47
2022-11-06T08:35:34.471Z,45.45
2022-11-06T08:36:37.609Z,45.34
2022-11-06T08:37:34.859Z,45.45
2022-11-06T08:38:34.890Z,45.45
2022-11-06T08:39:34.168Z,45.45
2022-11-06T08:40:34.096Z,45.45
2022-11-06T08:41:34.428Z,45.45
2022-11-06T08:42:36.559Z,45.45
2022-11-06T08:43:34.488Z,45.34
2022-11-06T08:44:34.729Z,45.45
2022-11-06T08:45:36.819Z,45.45
2022-11-06T08:46:35.616Z,45.45
2022-11-06T08:47:35.196Z,45.45
2022-11-06T08:48:35.168Z,45.45
2022-11-06T08:49:35.429Z,45.45
2022-11-06T08:50:35.527Z,45.45
2022-11-06T08:51:37.747Z,45.45
2022-11-06T08:52:36.758Z,45.45
2022-11-06T08:53:36.948Z,45.45
2022-11-06T08:54:36.937Z,45.45
2022-11-06T08:55:37.605Z,45.45
2022-11-06T08:56:37.360Z,45.45
2022-11-06T08:57:38.126Z,45.45
2022-11-06T08:58:38.558Z,45.45
2022-11-06T08:59:38.317Z,45.45
2022-11-06T09:00:37.829Z,45.45
2022-11-06T09:01:38.756Z,45.45
2022-11-06T09:02:38.997Z,45.54
2022-11-06T09:03:38.785Z,45.53
2022-11-06T09:04:41.452Z,45.42
2022-11-06T09:05:38.229Z,45.53
2022-11-06T09:06:37.588Z,45.53
2022-11-06T09:07:38.830Z,45.42
2022-11-06T09:08:40.358Z,45.42
2022-11-06T09:09:38.748Z,45.53
2022-11-06T09:10:39.134Z,45.53
2022-11-06T09:11:38.349Z,45.53
2022-11-06T09:12:38.419Z,45.53
2022-11-06T09:13:40.233Z,45.42
2022-11-06T09:14:38.850Z,45.53
2022-11-06T09:15:38.703Z,45.53
2022-11-06T09:16:40.284Z,45.53
2022-11-06T09:17:39.838Z,45.53
2022-11-06T09:18:41.587Z,45.53
2022-11-06T09:19:39.304Z,45.53
2022-11-06T09:20:41.424Z,45.53
2022-11-06T09:21:40.277Z,45.53
2022-11-06T09:22:42.780Z,45.53
2022-11-06T09:23:41.144Z,45.53
2022-11-06T09:25:01.809Z,45.53
2022-11-06T09:25:43.862Z,45.42
2022-11-06T09:26:41.332Z,45.53
2022-11-06T09:27:41.315Z,45.53
2022-11-06T09:28:41.515Z,45.53
2022-11-06T09:29:41.917Z,45.50
2022-11-06T09:30:42.221Z,45.42
2022-11-06T09:31:42.035Z,45.50
2022-11-06T09:32:41.052Z,45.40
2022-11-06T09:33:42.764Z,45.40
2022-11-06T09:34:42.412Z,45.40
2022-11-06T09:35:42.838Z,45.50
2022-11-06T09:36:42.689Z,45.50
2022-11-06T09:37:43.300Z,45.40
2022-11-06T09:38:43.592Z,45.40
2022-11-06T09:39:43.890Z,45.40
2022-11-06T09:40:43.943Z,45.50
2022-11-06T09:41:44.023Z,45.50
2022-11-06T09:42:44.290Z,45.50
2022-11-06T09:44:04.025Z,45.50
2022-11-06T09:44:43.819Z,45.50
2022-11-06T09:45:44.639Z,45.50
2022-11-06T09:46:43.041Z,45.50
2022-11-06T09:47:44.058Z,45.50
2022-11-06T09:48:44.824Z,45.50
2022-11-06T09:49:45.128Z,45.50
2022-11-06T09:50:43.432Z,45.50
2022-11-06T09:51:45.365Z,45.50
2022-11-06T09:52:43.763Z,45.50
2022-11-06T09:53:44.637Z,45.60
2022-11-06T09:54:45.628Z,45.60
2022-11-06T09:55:45.166Z,45.60
2022-11-06T09:56:45.097Z,45.60
2022-11-06T09:57:46.349Z,45.60
2022-11-06T09:58:47.145Z,45.60
2022-11-06T09:59:47.027Z,45.60
2022-11-06T10:00:47.777Z,45.60
2022-11-06T10:01:45.756Z,45.60
2022-11-06T10:13:04.515Z,46.11
2022-11-06T10:14:05.426Z,46.20
2022-11-06T10:15:05.133Z,46.20
2022-11-06T10:16:04.914Z,46.20
2022-11-06T10:17:05.830Z,46.20
2022-11-06T10:18:06.650Z,46.20
2022-11-06T10:19:06.102Z,46.11
2022-11-06T10:20:05.335Z,46.11
2022-11-06T10:21:06.302Z,46.11
2022-11-06T10:22:06.565Z,46.11
2022-11-06T10:23:05.818Z,46.11
2022-11-06T10:24:05.018Z,46.00
2022-11-06T10:25:06.755Z,46.00
2022-11-06T10:26:06.150Z,46.00
2022-11-06T10:27:05.351Z,46.00
2022-11-06T10:28:05.481Z,46.00
2022-11-06T10:29:07.268Z,46.00
2022-11-06T10:30:07.960Z,46.00
2022-11-06T10:31:08.890Z,45.98
2022-11-06T10:32:06.080Z,45.98
2022-11-06T10:33:06.262Z,45.98
2022-11-06T10:34:07.163Z,45.98
2022-11-06T10:35:08.119Z,45.98
2022-11-06T10:36:08.413Z,45.98
2022-11-06T10:37:08.744Z,45.98
2022-11-06T10:38:08.453Z,45.98
2022-11-06T10:39:08.673Z,46.08
2022-11-06T10:40:08.392Z,46.08
2022-11-06T10:41:09.162Z,45.98
2022-11-06T10:42:09.681Z,46.08
2022-11-06T10:43:08.711Z,46.08
2022-11-06T10:44:09.468Z,46.08
2022-11-06T10:45:10.292Z,46.08
2022-11-06T10:46:09.279Z,46.08
2022-11-06T10:47:09.288Z,46.08
2022-11-06T10:48:11.251Z,46.08
2022-11-06T10:49:08.610Z,46.08
2022-11-06T10:50:08.698Z,46.08
2022-11-06T10:51:08.787Z,46.08
2022-11-06T10:52:08.959Z,46.08
2022-11-06T10:53:10.243Z,46.08
2022-11-06T10:54:09.178Z,46.08
2022-11-06T10:55:09.364Z,46.08
2022-11-06T10:56:11.181Z,46.08
2022-11-06T10:57:09.647Z,46.08
2022-11-06T10:58:11.282Z,46.08
2022-11-06T10:59:09.905Z,46.18
2022-11-06T11:00:09.977Z,46.18
2022-11-06T11:01:12.300Z,46.18
2022-11-06T11:02:12.033Z,46.18
2022-11-06T11:03:10.366Z,46.18
2022-11-06T11:04:10.549Z,46.18
2022-11-06T11:05:10.715Z,46.18
2022-11-06T11:06:12.468Z,46.18
2022-11-06T11:07:16.352Z,46.18
2022-11-06T11:08:13.289Z,46.18
2022-11-06T11:09:12.807Z,46.18
2022-11-06T11:10:13.985Z,46.18
2022-11-06T11:11:13.912Z,46.18
2022-11-06T11:12:13.215Z,46.28
2022-11-06T11:13:13.507Z,46.28
2022-11-06T11:14:13.739Z,46.28
2022-11-06T11:15:13.534Z,46.38
2022-11-06T11:16:13.755Z,46.28
2022-11-06T11:17:13.255Z,46.28
2022-11-06T11:18:14.388Z,46.28
2022-11-06T11:19:14.235Z,46.18
2022-11-06T11:20:14.063Z,46.18
2022-11-06T11:21:14.302Z,46.28
2022-11-06T11:22:14.080Z,46.28
2022-11-06T11:23:14.375Z,46.28
2022-11-06T11:24:13.874Z,46.28
2022-11-06T11:25:13.381Z,46.28
2022-11-06T11:26:13.495Z,46.28
2022-11-06T11:27:14.833Z,46.28
2022-11-06T11:28:13.799Z,46.28
2022-11-06T11:29:14.673Z,46.18
2022-11-06T11:30:14.863Z,46.18
2022-11-06T11:31:14.140Z,46.28
2022-11-06T11:32:15.879Z,46.18
2022-11-06T11:33:14.317Z,46.18
2022-11-06T11:34:16.076Z,46.18
2022-11-06T11:35:14.637Z,46.18
2022-11-06T11:36:14.781Z,46.18
2022-11-06T11:37:16.042Z,46.18
2022-11-06T11:38:15.527Z,46.18
2022-11-06T11:39:17.512Z,46.18
2022-11-06T11:40:16.414Z,46.18
2022-11-06T11:41:16.526Z,46.18
2022-11-06T11:42:16.775Z,46.18
2022-11-06T11:43:16.743Z,46.28
2022-11-06T11:44:16.922Z,46.28
2022-11-06T11:45:16.972Z,46.18
2022-11-06T11:46:16.092Z,46.28
2022-11-06T11:47:17.360Z,46.18
2022-11-06T11:48:17.715Z,46.28
2022-11-06T11:49:17.918Z,46.38
2022-11-06T11:50:17.784Z,46.28
2022-11-06T11:51:17.844Z,46.28
2022-11-06T11:52:16.910Z,46.38
2022-11-06T11:53:17.086Z,46.38
2022-11-06T11:54:17.160Z,46.38
2022-11-06T11:55:18.439Z,46.38
2022-11-06T11:56:30.965Z,46.28
2022-11-06T11:57:19.745Z,46.28
2022-11-06T11:58:17.762Z,46.38
2022-11-06T11:59:17.868Z,46.38
2022-11-06T12:00:18.003Z,46.38
2022-11-06T12:01:19.322Z,46.38
2022-11-06T12:02:25.399Z,46.38
2022-11-06T12:03:19.509Z,46.38
2022-11-06T12:04:18.492Z,46.38
2022-11-06T12:05:18.590Z,46.38
2022-11-06T12:06:19.852Z,46.38
2022-11-06T12:07:18.784Z,46.38
2022-11-06T12:08:20.031Z,46.38
2022-11-06T12:09:19.174Z,46.38
2022-11-06T12:10:20.820Z,46.38
2022-11-06T12:11:21.137Z,46.38
2022-11-06T12:12:19.437Z,46.38
2022-11-06T12:13:20.723Z,46.28
2022-11-06T12:14:20.587Z,46.38
2022-11-06T12:15:19.940Z,46.38
2022-11-06T12:16:20.998Z,46.38
2022-11-06T12:17:21.810Z,46.28
2022-11-06T12:18:21.366Z,46.38
2022-11-06T12:19:21.396Z,46.38
2022-11-06T12:20:22.158Z,46.36
2022-11-06T12:21:21.986Z,46.36
2022-11-06T12:22:21.606Z,46.38
2022-11-06T12:23:22.286Z,46.38
2022-11-06T12:24:22.447Z,46.28
2022-11-06T12:25:21.058Z,46.38
2022-11-06T12:26:23.734Z,46.38
2022-11-06T12:27:22.190Z,46.38
2022-11-06T12:28:22.338Z,46.38
2022-11-06T12:29:22.489Z,46.48
2022-11-06T12:30:22.639Z,46.38
2022-11-06T12:31:24.492Z,46.38
2022-11-06T12:32:23.368Z,46.38
2022-11-06T12:33:27.424Z,46.36
2022-11-06T12:34:23.275Z,46.36
2022-11-06T12:35:22.440Z,46.36
2022-11-06T12:36:23.582Z,46.36
2022-11-06T12:37:23.777Z,46.26
2022-11-06T12:38:23.763Z,46.26
2022-11-06T12:39:22.900Z,46.36
2022-11-06T12:40:25.650Z,46.26
2022-11-06T12:41:24.222Z,46.36
2022-11-06T12:42:25.004Z,46.26
2022-11-06T12:43:25.299Z,46.26
2022-11-06T12:44:25.586Z,46.26
2022-11-06T12:45:25.363Z,46.26
2022-11-06T12:46:25.606Z,46.26
2022-11-06T12:47:26.862Z,46.26
2022-11-06T12:48:26.563Z,46.26
2022-11-06T12:49:25.892Z,46.36
2022-11-06T12:50:26.155Z,46.26
2022-11-06T12:51:26.462Z,46.26
2022-11-06T12:52:26.252Z,46.36
2022-11-06T12:53:26.506Z,46.38
2022-11-06T12:54:27.820Z,46.36
2022-11-06T12:55:27.011Z,46.36
2022-11-06T12:56:26.781Z,46.38
2022-11-06T12:57:27.572Z,46.38
2022-11-06T12:58:26.271Z,46.38
2022-11-06T12:59:25.693Z,46.38
2022-11-06T13:00:31.189Z,46.38
2022-11-06T13:01:26.910Z,46.38
2022-11-06T13:02:27.687Z,46.38
2022-11-06T13:03:26.101Z,46.38
2022-11-06T13:04:26.280Z,46.38
2022-11-06T13:05:26.416Z,46.38
2022-11-06T13:06:27.450Z,46.48
2022-11-06T13:07:27.779Z,46.38
2022-11-06T13:08:28.224Z,46.38
2022-11-06T13:09:26.933Z,46.48
2022-11-06T13:10:27.060Z,46.48
2022-11-06T13:11:27.259Z,46.38
2022-11-06T13:12:30.086Z,46.48
2022-11-06T13:13:31.228Z,46.38
2022-11-06T13:14:30.072Z,46.38
2022-11-06T13:15:30.251Z,46.48
2022-11-06T13:16:30.465Z,46.48
2022-11-06T13:17:30.536Z,46.48
2022-11-06T13:18:30.820Z,46.48
2022-11-06T13:19:30.928Z,46.48
2022-11-06T13:20:29.368Z,46.48
2022-11-06T13:21:29.688Z,46.48
2022-11-06T13:22:29.947Z,46.48
2022-11-06T13:23:31.186Z,46.48
2022-11-06T13:24:30.954Z,46.48
2022-11-06T13:25:35.123Z,46.58
2022-11-06T13:26:30.584Z,46.58
2022-11-06T13:27:31.525Z,46.58
2022-11-06T13:28:32.041Z,46.58
2022-11-06T13:29:32.930Z,46.48
2022-11-06T13:30:33.686Z,46.48
2022-11-06T13:31:32.459Z,46.48
2022-11-06T13:32:31.100Z,46.48
2022-11-06T13:33:32.213Z,46.58
2022-11-06T13:34:30.566Z,46.48
2022-11-06T13:35:30.664Z,46.48
2022-11-06T13:36:31.926Z,46.48
2022-11-06T13:37:31.700Z,46.48
2022-11-06T13:38:32.162Z,46.48
2022-11-06T13:39:31.189Z,46.48
2022-11-06T13:40:31.414Z,46.38
2022-11-06T13:41:33.681Z,46.38
2022-11-06T13:42:31.613Z,46.38
2022-11-06T13:43:31.773Z,46.38
2022-11-06T13:44:32.496Z,46.48
2022-11-06T13:45:34.652Z,46.38
2022-11-06T13:46:35.016Z,46.38
2022-11-06T13:47:35.786Z,46.38
2022-11-06T13:48:36.973Z,46.48
2022-11-06T13:49:34.498Z,46.38
2022-11-06T13:50:35.235Z,46.38
2022-11-06T13:51:34.938Z,46.38
2022-11-06T13:52:36.184Z,46.48
2022-11-06T13:53:35.445Z,46.48
2022-11-06T13:54:36.789Z,46.48
2022-11-06T13:55:36.048Z,46.50
2022-11-06T13:56:35.995Z,46.50
2022-11-06T13:57:36.043Z,46.50
2022-11-06T13:58:33.815Z,46.50
2022-11-06T13:59:36.616Z,46.41
2022-11-06T14:00:34.142Z,46.41
2022-11-06T14:01:34.329Z,46.41
2022-11-06T14:02:36.228Z,46.41
2022-11-06T14:03:34.465Z,46.41
2022-11-06T14:04:34.667Z,46.41
2022-11-06T14:05:34.805Z,46.41
2022-11-06T14:06:34.952Z,46.41
2022-11-06T14:07:36.069Z,46.41
2022-11-06T14:08:35.336Z,46.41
2022-11-06T14:09:35.463Z,46.41
2022-11-06T14:10:35.511Z,46.41
2022-11-06T14:11:36.919Z,46.41
2022-11-06T14:12:37.592Z,46.41
2022-11-06T14:13:36.832Z,46.41
2022-11-06T14:14:36.072Z,46.41
2022-11-06T14:15:37.361Z,46.41
2022-11-06T14:16:36.514Z,46.41
2022-11-06T14:17:37.570Z,46.41
2022-11-06T14:18:38.342Z,46.41
2022-11-06T14:19:39.203Z,46.41
2022-11-06T14:20:37.921Z,46.41
2022-11-06T14:21:37.070Z,46.41
2022-11-06T14:22:38.939Z,46.41
2022-11-06T14:23:38.264Z,46.41
2022-11-06T14:24:38.521Z,46.41
2022-11-06T14:25:39.800Z,46.41
2022-11-06T14:26:38.686Z,46.41
2022-11-06T14:27:38.893Z,46.41
2022-11-06T14:28:39.020Z,46.41
2022-11-06T14:29:39.173Z,46.41
2022-11-06T14:31:10.360Z,46.41
2022-11-06T14:31:39.412Z,46.41
2022-11-06T14:32:38.582Z,46.50
2022-11-06T14:33:39.681Z,46.50
2022-11-06T14:34:39.944Z,46.41
2022-11-06T14:35:39.987Z,46.41
2022-11-06T14:36:40.059Z,46.41
2022-11-06T14:37:39.245Z,46.41
2022-11-06T14:38:39.431Z,46.41
2022-11-06T14:39:41.701Z,46.41
2022-11-06T14:40:39.699Z,46.41
2022-11-06T14:41:39.838Z,46.41
2022-11-06T14:42:39.954Z,46.41
2022-11-06T14:43:40.024Z,46.50
2022-11-06T14:44:40.178Z,46.50
2022-11-06T14:45:41.930Z,46.50
2022-11-06T14:46:40.527Z,46.50
2022-11-06T14:47:41.497Z,46.50
2022-11-06T14:48:40.679Z,46.50
2022-11-06T14:49:41.840Z,46.50
2022-11-06T14:50:41.989Z,46.53
2022-11-06T14:51:42.134Z,46.53
2022-11-06T14:52:42.249Z,46.53
2022-11-06T14:53:42.365Z,46.50
2022-11-06T14:54:42.514Z,46.53
2022-11-06T14:55:42.757Z,46.53
2022-11-06T14:56:42.709Z,46.62
2022-11-06T14:57:43.066Z,46.53
2022-11-06T14:58:43.020Z,46.53
2022-11-06T14:59:43.092Z,46.53
2022-11-06T15:00:43.169Z,46.53
2022-11-06T15:01:43.439Z,46.53
2022-11-06T15:02:44.720Z,46.53
2022-11-06T15:03:43.627Z,46.53
2022-11-06T15:04:43.747Z,46.53
2022-11-06T15:05:43.091Z,46.53
2022-11-06T15:06:42.988Z,46.53
2022-11-06T15:08:04.587Z,46.53
2022-11-06T15:08:44.236Z,46.42
2022-11-06T15:09:43.429Z,46.53
2022-11-06T15:10:43.561Z,46.53
2022-11-06T15:11:48.082Z,46.53
2022-11-06T15:12:45.095Z,46.53
2022-11-06T15:13:43.972Z,46.53
2022-11-06T15:14:44.117Z,46.53
2022-11-06T15:15:44.231Z,46.53
2022-11-06T15:16:46.006Z,46.42
2022-11-06T15:17:46.777Z,46.42
2022-11-06T15:18:44.566Z,46.42
2022-11-06T15:19:44.758Z,46.42
2022-11-06T15:20:49.389Z,46.42
2022-11-06T15:21:47.750Z,46.42
2022-11-06T15:22:46.447Z,46.42
2022-11-06T15:23:46.246Z,46.42
2022-11-06T15:24:46.370Z,46.42
2022-11-06T15:25:46.499Z,46.42
2022-11-06T15:26:47.375Z,46.42
2022-11-06T15:27:46.754Z,46.42
2022-11-06T15:28:47.066Z,46.42
2022-11-06T15:29:47.029Z,46.42
2022-11-06T15:30:47.203Z,46.42
2022-11-06T15:31:46.317Z,46.42
2022-11-06T15:32:47.591Z,46.42
2022-11-06T15:33:50.434Z,46.42
2022-11-06T15:34:48.773Z,46.42
2022-11-06T15:35:47.944Z,46.42
2022-11-06T15:36:48.772Z,46.42
2022-11-06T15:37:48.453Z,46.42
2022-11-06T15:38:48.358Z,46.42
2022-11-06T15:39:48.434Z,46.42
2022-11-06T15:40:48.622Z,46.42
2022-11-06T15:41:47.694Z,46.42
2022-11-06T15:42:48.986Z,46.42
2022-11-06T15:43:48.931Z,46.42
2022-11-06T15:44:49.098Z,46.42
2022-11-06T15:45:48.245Z,46.42
2022-11-06T15:46:48.371Z,46.42
2022-11-06T15:47:48.520Z,46.42
2022-11-06T15:48:49.736Z,46.42
2022-11-06T15:49:49.660Z,46.42
2022-11-06T15:50:48.861Z,46.42
2022-11-06T15:51:48.981Z,46.33
2022-11-06T15:52:50.247Z,46.33
2022-11-06T15:53:50.194Z,46.42
2022-11-06T15:54:50.300Z,46.42
2022-11-06T15:55:50.426Z,46.33
2022-11-06T15:56:50.671Z,46.33
2022-11-06T15:57:50.691Z,46.33
2022-11-06T15:58:50.890Z,46.33
2022-11-06T15:59:51.181Z,46.33
2022-11-06T16:00:51.121Z,46.33
2022-11-06T16:12:15.099Z,46.85
2022-11-06T16:13:15.498Z,46.97
2022-11-06T16:14:15.371Z,46.87
2022-11-06T16:15:15.541Z,46.97
2022-11-06T16:16:15.692Z,46.85
2022-11-06T16:17:17.101Z,46.87
2022-11-06T16:18:16.755Z,46.85
2022-11-06T16:19:16.154Z,46.75
2022-11-06T16:20:17.308Z,46.75
2022-11-06T16:21:16.407Z,46.75
2022-11-06T16:22:17.654Z,46.75
2022-11-06T16:23:16.842Z,46.65
2022-11-06T16:24:17.586Z,46.65
2022-11-06T16:25:17.753Z,46.65
2022-11-06T16:26:18.193Z,46.65
2022-11-06T16:27:17.218Z,46.55
2022-11-06T16:28:18.372Z,46.55
2022-11-06T16:29:18.770Z,46.55
2022-11-06T16:30:24.799Z,46.45
2022-11-06T16:31:20.637Z,46.45
2022-11-06T16:32:18.096Z,46.45
2022-11-06T16:33:18.764Z,46.45
2022-11-06T16:34:19.414Z,46.45
2022-11-06T16:35:19.405Z,46.45
2022-11-06T16:36:19.720Z,46.45
2022-11-06T16:37:20.447Z,46.35
2022-11-06T16:38:40.280Z,46.35
2022-11-06T16:39:21.781Z,46.35
2022-11-06T16:40:20.904Z,46.35
2022-11-06T16:41:20.462Z,46.35
2022-11-06T16:42:21.206Z,46.35
2022-11-06T16:43:20.459Z,46.35
2022-11-06T16:44:23.597Z,46.35
2022-11-06T16:45:20.714Z,46.25
2022-11-06T16:46:20.494Z,46.25
2022-11-06T16:47:22.416Z,46.25
2022-11-06T16:48:20.044Z,46.25
2022-11-06T16:49:21.596Z,46.25
2022-11-06T16:50:20.343Z,46.25
2022-11-06T16:51:21.124Z,46.25
2022-11-06T16:52:20.574Z,46.25
2022-11-06T16:53:20.721Z,46.25
2022-11-06T16:54:22.002Z,46.25
2022-11-06T16:55:21.018Z,46.25
2022-11-06T16:56:21.187Z,46.25
2022-11-06T16:57:21.371Z,46.25
2022-11-06T16:58:21.461Z,46.15
2022-11-06T16:59:23.290Z,46.25
2022-11-06T17:00:23.620Z,46.25
2022-11-06T17:01:23.438Z,46.15
2022-11-06T17:02:23.244Z,46.15
2022-11-06T17:03:23.823Z,46.15
2022-11-06T17:04:24.140Z,46.15
2022-11-06T17:05:23.490Z,46.15
2022-11-06T17:06:23.940Z,46.04
2022-11-06T17:07:26.663Z,46.04
2022-11-06T17:08:23.631Z,46.04
2022-11-06T17:09:24.650Z,46.04
2022-11-06T17:10:24.100Z,45.95
2022-11-06T17:11:25.977Z,45.95
2022-11-06T17:12:24.709Z,46.04
2022-11-06T17:13:27.479Z,45.95